Time;durP1;ratioP1;P1;durP2;ratioP2;P2;SDS_P1;SDS_P2;PMS_P1;PMS_P2;Temp;Humidity;BMP_temperature;BMP_pressure;BME280_temperature;BME280_humidity;BME280_pressure;Samples;Min_cycle;Max_cycle;Signal;HPM_P1;HPM_P2
2023/09/30 00:00:33;;;;;;;2.53;1.80;;;;;;;16.77;100.00;101836.63;2073824;28;20224;-67
2023/09/30 00:01:33;;;;;;;3.60;1.80;;;;;;;16.77;100.00;101842.22;2073693;28;20659;-67
2023/09/30 00:02:34;;;;;;;2.97;1.73;;;;;;;16.31;100.00;101779.22;2073819;28;20827;-67
2023/09/30 00:03:34;;;;;;;3.70;1.70;;;;;;;16.69;100.00;101849.25;2073423;28;20184;-67
2023/09/30 00:04:35;;;;;;;3.17;1.83;;;;;;;16.68;100.00;101842.09;2074961;28;20558;-67
2023/09/30 00:05:35;;;;;;;2.73;1.77;;;;;;;16.69;100.00;101838.06;2080726;28;20177;-68
2023/09/30 00:06:36;;;;;;;2.93;1.67;;;;;;;16.66;100.00;101836.94;2073125;28;20173;-68
2023/09/30 00:07:37;;;;;;;4.50;1.80;;;;;;;16.64;100.00;101847.03;2073780;28;20221;-67
2023/09/30 00:08:39;;;;;;;3.63;1.70;;;;;;;16.63;100.00;101845.44;2081019;28;20968;-67
2023/09/30 00:09:40;;;;;;;3.33;1.77;;;;;;;16.62;100.00;101837.53;2080975;28;20259;-67
2023/09/30 00:10:40;;;;;;;7.53;2.07;;;;;;;16.63;100.00;101840.63;2073418;28;20943;-68
2023/09/30 00:11:40;;;;;;;3.07;1.73;;;;;;;16.60;100.00;101837.94;2073432;28;20693;-68
2023/09/30 00:12:41;;;;;;;2.93;1.63;;;;;;;16.63;100.00;101848.25;2073419;28;20184;-68
2023/09/30 00:13:42;;;;;;;2.60;1.70;;;;;;;16.60;100.00;101847.13;2073502;28;20172;-68
2023/09/30 00:14:42;;;;;;;5.17;2.20;;;;;;;16.38;100.00;101814.56;2073134;28;20234;-68
2023/09/30 00:15:43;;;;;;;4.67;1.90;;;;;;;15.95;100.00;101752.69;2073396;28;20183;-67
2023/09/30 00:16:44;;;;;;;2.63;1.57;;;;;;;16.54;100.00;101860.09;2073486;28;20249;-68
2023/09/30 00:17:45;;;;;;;4.00;2.10;;;;;;;16.55;100.00;101858.84;2073508;28;20228;-68
2023/09/30 00:18:46;;;;;;;3.23;1.70;;;;;;;16.56;100.00;101854.06;2073511;28;20781;-68
2023/09/30 00:19:46;;;;;;;6.87;1.80;;;;;;;16.37;100.00;101821.41;2073618;28;20185;-68
2023/09/30 00:20:47;;;;;;;3.47;1.90;;;;;;;16.54;100.00;101848.91;2070353;28;20453;-68
2023/09/30 00:21:49;;;;;;;2.33;1.70;;;;;;;16.55;100.00;101847.66;2073596;28;20253;-68
2023/09/30 00:22:49;;;;;;;5.33;1.90;;;;;;;16.12;100.00;101782.94;2068396;28;20424;-68
2023/09/30 00:23:50;;;;;;;3.97;1.60;;;;;;;16.58;100.00;101853.63;2067142;28;23288;-67
2023/09/30 00:24:50;;;;;;;3.97;1.63;;;;;;;16.58;100.00;101848.03;2064663;28;20555;-67
2023/09/30 00:25:51;;;;;;;4.03;1.70;;;;;;;16.57;100.00;101849.25;2071134;28;20428;-68
2023/09/30 00:26:51;;;;;;;4.23;1.83;;;;;;;16.29;100.00;101803.25;2073311;28;20196;-68
2023/09/30 00:27:52;;;;;;;3.67;1.80;;;;;;;16.57;100.00;101846.47;2073632;28;20245;-68
2023/09/30 00:28:52;;;;;;;2.63;1.53;;;;;;;16.54;100.00;101856.53;2076114;28;20194;-68
2023/09/30 00:29:53;;;;;;;3.30;1.80;;;;;;;16.55;100.00;101841.31;2079883;28;20641;-68
2023/09/30 00:30:53;;;;;;;3.40;1.80;;;;;;;16.52;100.00;101837.38;2080723;28;20786;-68
2023/09/30 00:31:54;;;;;;;2.80;2.07;;;;;;;16.58;100.00;101836.81;2081036;28;20181;-68
2023/09/30 00:32:54;;;;;;;2.50;1.60;;;;;;;16.58;100.00;101834.03;2073324;28;20294;-68
2023/09/30 00:33:55;;;;;;;4.70;1.93;;;;;;;16.58;100.00;101837.59;2072936;28;20181;-68
2023/09/30 00:34:56;;;;;;;2.87;1.80;;;;;;;16.59;100.00;101839.19;2072516;28;20252;-68
2023/09/30 00:35:56;;;;;;;5.13;2.13;;;;;;;16.55;100.00;101832.91;2072897;28;20467;-68
2023/09/30 00:36:57;;;;;;;4.33;2.10;;;;;;;16.55;100.00;101839.28;2080679;28;20244;-68
2023/09/30 00:37:57;;;;;;;5.23;2.10;;;;;;;16.54;100.00;101837.69;2080975;28;20670;-68
2023/09/30 00:38:58;;;;;;;2.73;1.63;;;;;;;16.52;100.00;101833.00;2073021;28;20674;-68
2023/09/30 00:39:58;;;;;;;2.17;1.50;;;;;;;16.52;100.00;101839.38;2073725;28;20181;-68
2023/09/30 00:40:59;;;;;;;3.27;1.67;;;;;;;16.54;100.00;101831.34;2073481;28;20185;-68
2023/09/30 00:41:59;;;;;;;2.93;1.70;;;;;;;16.48;100.00;101825.50;2073538;28;20269;-68
2023/09/30 00:43:00;;;;;;;4.27;1.50;;;;;;;16.54;100.00;101834.91;2073569;28;20244;-68
2023/09/30 00:44:02;;;;;;;3.77;1.83;;;;;;;16.43;100.00;101828.03;2073327;28;20207;-68
2023/09/30 00:45:04;;;;;;;2.63;1.50;;;;;;;16.55;100.00;101832.91;2072536;28;20455;-68
2023/09/30 00:46:30;;;;;;;5.33;1.93;;;;;;;16.56;100.00;101840.06;2073243;28;20864;-68
2023/09/30 00:47:31;;;;;;;3.67;1.70;;;;;;;16.48;100.00;101816.31;2069860;28;20902;-68
2023/09/30 00:48:35;;;;;;;3.03;1.60;;;;;;;16.24;100.00;101781.44;2080540;28;20435;-68
2023/09/30 00:49:36;;;;;;;3.87;1.67;;;;;;;16.54;100.00;101831.34;2080189;28;20443;-68
2023/09/30 00:50:37;;;;;;;2.37;1.30;;;;;;;16.52;100.00;101827.41;2073321;28;20424;-68
2023/09/30 00:51:38;;;;;;;3.77;1.90;;;;;;;16.54;100.00;101834.91;2072957;28;20166;-68
2023/09/30 00:52:39;;;;;;;2.10;1.50;;;;;;;16.54;100.00;101840.50;2073467;28;20252;-68
2023/09/30 00:53:41;;;;;;;3.33;1.90;;;;;;;16.43;100.00;101825.25;2072958;28;20817;-68
2023/09/30 00:54:43;;;;;;;2.73;1.60;;;;;;;16.50;100.00;101839.06;2072964;28;20856;-67
2023/09/30 00:55:44;;;;;;;3.10;1.70;;;;;;;16.50;100.00;101839.81;2072850;28;20443;-68
2023/09/30 00:56:46;;;;;;;5.07;1.70;;;;;;;16.50;100.00;101842.63;2073196;28;20535;-68
2023/09/30 00:57:47;;;;;;;2.40;1.53;;;;;;;16.50;100.00;101844.66;2073222;28;20289;-68
2023/09/30 00:58:48;;;;;;;7.43;2.10;;;;;;;16.49;100.00;101840.28;2073125;28;20458;-68
2023/09/30 00:59:50;;;;;;;3.23;1.90;;;;;;;16.49;100.00;101845.88;2073311;28;20199;-68
2023/09/30 01:00:52;;;;;;;2.67;1.50;;;;;;;16.48;100.00;101842.28;2073165;28;20420;-68
2023/09/30 01:01:57;;;;;;;2.93;1.60;;;;;;;16.48;100.00;101835.13;2073360;28;20420;-68
2023/09/30 01:03:03;;;;;;;3.53;1.93;;;;;;;16.20;100.00;101795.53;2073014;28;20818;-68
2023/09/30 01:04:04;;;;;;;4.93;1.70;;;;;;;16.45;100.00;101843.16;2065190;28;20422;-68
2023/09/30 01:05:05;;;;;;;4.33;1.70;;;;;;;16.45;100.00;101836.78;2071622;28;20435;-68
2023/09/30 01:06:05;;;;;;;2.63;1.47;;;;;;;16.44;100.00;101830.41;2073323;28;20444;-68
2023/09/30 01:07:06;;;;;;;2.93;1.70;;;;;;;16.45;100.00;101836.78;2080410;28;20275;-68
2023/09/30 01:08:06;;;;;;;4.77;1.60;;;;;;;16.40;100.00;101834.53;2080647;28;20275;-68
2023/09/30 01:09:10;;;;;;;2.97;1.70;;;;;;;16.42;100.00;101843.25;2073040;28;20259;-68
2023/09/30 01:10:10;;;;;;;2.80;1.77;;;;;;;16.42;100.00;101840.47;2072784;28;20196;-68
2023/09/30 01:11:12;;;;;;;4.13;1.80;;;;;;;16.42;100.00;101844.06;2073078;28;20421;-68
2023/09/30 01:12:12;;;;;;;3.73;1.73;;;;;;;16.39;100.00;101836.53;2073116;28;20334;-68
2023/09/30 01:13:13;;;;;;;2.03;1.43;;;;;;;16.40;100.00;101852.09;2065259;28;20430;-68
2023/09/30 01:14:34;;;;;;;2.03;1.30;;;;;;;16.40;100.00;101848.53;2071686;28;20198;-68
2023/09/30 01:15:36;;;;;;;2.63;1.70;;;;;;;16.03;100.00;101796.78;2072907;28;20167;-68
2023/09/30 01:16:37;;;;;;;5.10;1.97;;;;;;;16.35;100.00;101846.25;2072431;28;20449;-68
2023/09/30 01:17:37;;;;;;;3.73;1.70;;;;;;;16.06;100.00;101798.72;2073137;28;20441;-68
2023/09/30 01:18:40;;;;;;;3.80;1.63;;;;;;;16.27;100.00;101845.66;2072825;28;20700;-68
2023/09/30 01:19:42;;;;;;;3.53;1.80;;;;;;;16.25;100.00;101842.50;2073160;28;20280;-68
2023/09/30 01:20:43;;;;;;;4.50;2.43;;;;;;;16.24;100.00;101846.53;2073153;28;21002;-68
2023/09/30 01:21:48;;;;;;;2.57;1.57;;;;;;;16.22;100.00;101848.19;2073032;28;20859;-68
2023/09/30 01:22:48;;;;;;;1.87;1.30;;;;;;;16.21;100.00;101844.63;2073143;28;20174;-68
2023/09/30 01:23:49;;;;;;;2.83;1.63;;;;;;;16.20;100.00;101843.06;2072444;28;20462;-68
2023/09/30 01:24:49;;;;;;;3.47;1.80;;;;;;;16.10;100.00;101832.16;2064548;28;20181;-68
2023/09/30 01:25:50;;;;;;;3.50;1.87;;;;;;;16.17;100.00;101851.53;2072291;28;20227;-68
2023/09/30 01:26:50;;;;;;;2.47;1.70;;;;;;;16.13;100.00;101845.28;2072942;28;20194;-68
2023/09/30 01:27:51;;;;;;;2.67;1.67;;;;;;;16.06;100.00;101848.25;2072989;28;20200;-68
2023/09/30 01:28:51;;;;;;;2.60;1.40;;;;;;;15.83;100.00;101812.13;2072837;28;20662;-68
2023/09/30 01:29:52;;;;;;;2.53;1.63;;;;;;;16.04;100.00;101850.69;2079830;28;20731;-68
2023/09/30 01:30:52;;;;;;;3.17;1.83;;;;;;;16.00;100.00;101838.81;2080542;28;20344;-68
2023/09/30 01:31:53;;;;;;;3.00;1.53;;;;;;;16.02;100.00;101847.53;2072721;28;20656;-68
2023/09/30 01:32:54;;;;;;;2.50;1.50;;;;;;;15.47;100.00;101761.19;2073139;28;20303;-68
2023/09/30 01:33:55;;;;;;;5.10;1.80;;;;;;;16.01;100.00;101848.78;2064832;28;20188;-67
2023/09/30 01:34:56;;;;;;;3.17;1.53;;;;;;;16.00;100.00;101845.22;2071415;28;20464;-68
2023/09/30 01:35:57;;;;;;;2.23;1.40;;;;;;;15.90;100.00;101835.09;2072513;28;20448;-68
2023/09/30 01:36:57;;;;;;;3.20;1.83;;;;;;;16.00;100.00;101848.00;2072821;28;20185;-68
2023/09/30 01:37:58;;;;;;;3.13;1.60;;;;;;;15.99;100.00;101848.44;2072970;28;20193;-68
2023/09/30 01:38:59;;;;;;;2.50;1.50;;;;;;;15.81;100.00;101826.53;2072729;28;20647;-68
2023/09/30 01:39:59;;;;;;;2.57;1.43;;;;;;;15.97;100.00;101851.66;2073002;28;20201;-67
2023/09/30 01:41:00;;;;;;;4.00;1.57;;;;;;;15.96;100.00;101850.09;2072832;28;20232;-68
2023/09/30 01:42:00;;;;;;;3.70;1.70;;;;;;;15.58;100.00;101796.00;2073113;28;20219;-68
2023/09/30 01:43:01;;;;;;;3.77;1.83;;;;;;;15.96;100.00;101855.69;2072837;28;20188;-68
2023/09/30 01:44:01;;;;;;;4.40;1.60;;;;;;;15.94;100.00;101852.53;2072296;28;20761;-68
2023/09/30 01:45:02;;;;;;;4.43;1.50;;;;;;;15.95;100.00;101851.34;2076967;28;20637;-68
2023/09/30 01:46:05;;;;;;;3.90;1.80;;;;;;;15.94;100.00;101846.94;2076918;28;20661;-68
2023/09/30 01:47:05;;;;;;;2.27;1.60;;;;;;;15.93;100.00;101850.22;2072890;28;20189;-68
2023/09/30 01:48:06;;;;;;;3.97;1.70;;;;;;;15.92;100.00;101845.81;2072426;28;20413;-68
2023/09/30 01:49:07;;;;;;;8.07;2.00;;;;;;;15.92;100.00;101843.03;2072448;28;20188;-67
2023/09/30 01:50:08;;;;;;;4.70;2.20;;;;;;;15.90;100.00;101851.06;2072882;28;20931;-67
2023/09/30 01:51:08;;;;;;;5.00;1.90;;;;;;;15.87;100.00;101852.75;2072800;28;20196;-68
2023/09/30 01:52:09;;;;;;;2.70;1.70;;;;;;;15.84;100.00;101853.59;2072470;28;20190;-68
2023/09/30 01:53:09;;;;;;;3.77;1.60;;;;;;;15.75;100.00;101838.69;2073071;28;20275;-68
2023/09/30 01:54:10;;;;;;;2.53;1.63;;;;;;;15.79;100.00;101853.38;2072593;28;20189;-68
2023/09/30 01:55:11;;;;;;;2.57;1.60;;;;;;;15.41;100.00;101785.28;2071742;28;20661;-68
2023/09/30 01:56:12;;;;;;;3.50;2.03;;;;;;;15.76;100.00;101854.22;2072693;28;20806;-68
2023/09/30 01:57:12;;;;;;;3.10;1.50;;;;;;;15.74;100.00;101848.31;2072691;28;20562;-68
2023/09/30 01:58:13;;;;;;;2.60;1.60;;;;;;;15.75;100.00;101850.66;2072200;28;20182;-68
2023/09/30 01:59:14;;;;;;;2.70;1.80;;;;;;;15.76;100.00;101851.44;2080887;28;20461;-68
2023/09/30 02:00:14;;;;;;;2.53;1.73;;;;;;;15.75;100.00;101847.88;2073539;28;20207;-68
2023/09/30 02:01:15;;;;;;;2.93;1.60;;;;;;;15.31;100.00;101775.91;2072831;28;20188;-68
2023/09/30 02:02:16;;;;;;;2.40;1.60;;;;;;;15.72;100.00;101845.94;2072780;28;20233;-68
2023/09/30 02:03:17;;;;;;;3.37;1.60;;;;;;;15.74;100.00;101843.50;2072767;28;20670;-68
2023/09/30 02:04:17;;;;;;;5.43;1.73;;;;;;;15.76;100.00;101843.06;2072662;28;20226;-68
2023/09/30 02:05:18;;;;;;;4.13;1.73;;;;;;;15.74;100.00;101846.31;2071634;28;20847;-68
2023/09/30 02:06:19;;;;;;;4.70;1.60;;;;;;;15.73;100.00;101843.94;2072552;28;20235;-68
2023/09/30 02:07:19;;;;;;;2.40;1.70;;;;;;;15.74;100.00;101845.50;2072844;28;20424;-68
2023/09/30 02:08:20;;;;;;;2.70;1.70;;;;;;;15.75;100.00;101847.88;2072589;28;20586;-68
2023/09/30 02:09:20;;;;;;;3.23;1.80;;;;;;;15.77;100.00;101841.84;2072588;28;20185;-68
2023/09/30 02:10:21;;;;;;;2.43;1.60;;;;;;;15.78;100.00;101843.41;2072378;28;20189;-68
2023/09/30 02:11:21;;;;;;;2.77;1.50;;;;;;;15.77;100.00;101848.22;2072725;28;20195;-68
2023/09/30 02:12:22;;;;;;;3.30;1.90;;;;;;;15.79;100.00;101844.97;2071953;28;20567;-68
2023/09/30 02:13:23;;;;;;;4.10;1.60;;;;;;;15.80;100.00;101847.34;2072784;28;20184;-68
2023/09/30 02:14:24;;;;;;;2.83;1.70;;;;;;;15.81;100.00;101848.09;2072268;28;20469;-68
2023/09/30 02:15:25;;;;;;;2.90;1.53;;;;;;;15.82;100.00;101846.88;2072227;28;20191;-68
2023/09/30 02:16:26;;;;;;;4.97;1.90;;;;;;;15.82;100.00;101841.28;2072752;28;20889;-68
2023/09/30 02:17:27;;;;;;;2.70;1.63;;;;;;;15.84;100.00;101841.66;2072718;28;20783;-68
2023/09/30 02:18:27;;;;;;;2.90;2.03;;;;;;;15.85;100.00;101848.81;2072120;28;20459;-68
2023/09/30 02:19:28;;;;;;;3.17;1.70;;;;;;;15.84;100.00;101841.66;2072370;28;20677;-68
2023/09/30 02:20:30;;;;;;;11.80;1.70;;;;;;;15.84;100.00;101842.41;2072753;28;20683;-68
2023/09/30 02:21:30;;;;;;;1.90;1.37;;;;;;;15.85;100.00;101841.22;2072808;28;20190;-68
2023/09/30 02:22:31;;;;;;;3.37;1.57;;;;;;;15.84;100.00;101845.22;2072555;28;20431;-68
2023/09/30 02:23:31;;;;;;;2.33;1.43;;;;;;;15.86;100.00;101844.78;2072645;28;20192;-68
2023/09/30 02:24:32;;;;;;;2.97;1.80;;;;;;;15.83;100.00;101846.44;2072517;28;20244;-68
2023/09/30 02:25:33;;;;;;;2.57;1.43;;;;;;;15.82;100.00;101844.09;2064523;28;20190;-68
2023/09/30 02:26:33;;;;;;;5.47;1.80;;;;;;;15.84;100.00;101839.63;2070438;28;20671;-68
2023/09/30 02:27:34;;;;;;;2.93;1.67;;;;;;;15.81;100.00;101848.91;2072336;28;20212;-68
2023/09/30 02:28:34;;;;;;;2.77;1.50;;;;;;;15.84;100.00;101838.84;2068748;28;20555;-68
2023/09/30 02:29:35;;;;;;;2.97;1.70;;;;;;;15.84;100.00;101838.84;2074453;28;20169;-68
2023/09/30 02:30:36;;;;;;;3.17;1.80;;;;;;;15.84;100.00;101841.66;2079862;28;20663;-68
2023/09/30 02:31:36;;;;;;;4.40;1.57;;;;;;;15.86;100.00;101830.81;2072270;28;20223;-68
2023/09/30 02:32:39;;;;;;;1.87;1.50;;;;;;;15.82;100.00;101825.31;2072528;28;20170;-68
2023/09/30 02:33:40;;;;;;;3.37;1.93;;;;;;;15.87;100.00;101841.56;2072573;28;20638;-68
2023/09/30 02:34:40;;;;;;;5.93;1.93;;;;;;;15.61;100.00;101797.13;2071807;28;20506;-68
2023/09/30 02:35:45;;;;;;;5.97;1.70;;;;;;;15.88;100.00;101831.16;2071910;28;20674;-68
2023/09/30 02:36:45;;;;;;;3.40;1.90;;;;;;;15.91;100.00;101838.66;2077318;28;20189;-68
2023/09/30 02:37:46;;;;;;;3.40;1.77;;;;;;;15.64;100.00;101793.47;2076945;28;20447;-68
2023/09/30 02:38:47;;;;;;;2.83;1.83;;;;;;;15.90;100.00;101842.69;2072397;28;20186;-68
2023/09/30 02:39:47;;;;;;;2.70;1.60;;;;;;;15.92;100.00;101841.03;2072036;28;20185;-68
2023/09/30 02:40:49;;;;;;;2.43;2.00;;;;;;;15.96;100.00;101838.13;2072450;28;20557;-68
2023/09/30 02:41:50;;;;;;;4.30;1.80;;;;;;;15.97;100.00;101843.28;2072800;28;20180;-68
2023/09/30 02:42:53;;;;;;;2.73;1.50;;;;;;;15.98;100.00;101839.25;2072427;28;20524;-68
2023/09/30 02:43:54;;;;;;;3.60;1.80;;;;;;;16.01;100.00;101841.19;2072656;28;20275;-68
2023/09/30 02:44:54;;;;;;;2.13;1.50;;;;;;;16.01;100.00;101835.59;2071965;28;20448;-68
2023/09/30 02:45:55;;;;;;;3.27;1.67;;;;;;;15.99;100.00;101837.25;2071832;28;20706;-68
2023/09/30 02:46:55;;;;;;;2.43;1.60;;;;;;;16.01;100.00;101843.97;2072375;28;20185;-68
2023/09/30 02:47:56;;;;;;;2.93;1.70;;;;;;;16.05;100.00;101843.88;2072278;28;20257;-68
2023/09/30 02:48:56;;;;;;;3.53;1.53;;;;;;;16.05;100.00;101839.09;2072363;28;20177;-68
2023/09/30 02:49:57;;;;;;;3.50;2.10;;;;;;;16.05;100.00;101841.09;2072630;28;20173;-68
2023/09/30 02:50:57;;;;;;;5.63;1.53;;;;;;;16.05;100.00;101836.28;2072180;28;20229;-68
2023/09/30 02:51:58;;;;;;;2.30;1.50;;;;;;;15.97;100.00;101831.31;2072423;28;20182;-68
2023/09/30 02:52:59;;;;;;;3.03;1.97;;;;;;;16.05;100.00;101846.69;2072212;28;20205;-68
2023/09/30 02:53:59;;;;;;;4.20;1.70;;;;;;;16.02;100.00;101839.94;2071781;28;20178;-68
2023/09/30 02:55:00;;;;;;;3.57;1.63;;;;;;;16.02;100.00;101848.34;2071600;28;20248;-68
2023/09/30 02:56:00;;;;;;;3.33;1.80;;;;;;;16.00;100.00;101845.22;2071985;28;20679;-68
2023/09/30 02:57:03;;;;;;;3.40;1.97;;;;;;;15.97;100.00;101843.28;2072587;28;20263;-68
2023/09/30 02:58:04;;;;;;;3.20;1.87;;;;;;;15.90;100.00;101842.69;2072386;28;20684;-68
2023/09/30 02:59:06;;;;;;;2.83;1.60;;;;;;;15.88;100.00;101843.13;2072379;28;20823;-68
2023/09/30 03:00:26;;;;;;;3.80;1.73;;;;;;;15.89;100.00;101833.50;2072410;28;20212;-68
2023/09/30 03:01:27;;;;;;;2.60;1.63;;;;;;;15.92;100.00;101840.22;2064476;28;20412;-68
2023/09/30 03:02:28;;;;;;;8.87;2.13;;;;;;;15.91;100.00;101855.44;2072444;28;20465;-68
2023/09/30 03:03:30;;;;;;;4.93;2.00;;;;;;;15.91;100.00;101847.03;2072207;28;20193;-68
2023/09/30 03:04:32;;;;;;;3.83;1.67;;;;;;;15.88;100.00;101839.56;2071974;28;20451;-68
2023/09/30 03:05:33;;;;;;;2.60;1.73;;;;;;;15.87;100.00;101846.34;2071924;28;20444;-68
2023/09/30 03:06:36;;;;;;;2.57;1.80;;;;;;;15.83;100.00;101842.88;2071973;28;20428;-68
2023/09/30 03:07:38;;;;;;;3.13;1.90;;;;;;;15.84;100.00;101845.22;2071764;28;20219;-68
2023/09/30 03:08:38;;;;;;;2.77;1.63;;;;;;;15.85;100.00;101843.22;2071383;28;20490;-68
2023/09/30 03:09:39;;;;;;;5.93;2.10;;;;;;;15.86;100.00;101842.00;2063732;28;20424;-68
2023/09/30 03:10:40;;;;;;;8.60;2.40;;;;;;;15.85;100.00;101838.44;2071090;28;20194;-68
2023/09/30 03:11:42;;;;;;;3.20;1.80;;;;;;;15.85;100.00;101843.22;2072228;28;20572;-68
2023/09/30 03:12:42;;;;;;;2.70;1.87;;;;;;;15.85;100.00;101837.63;2072229;28;20454;-68
2023/09/30 03:13:43;;;;;;;2.83;1.43;;;;;;;15.85;100.00;101843.22;2072264;28;20444;-68
2023/09/30 03:14:44;;;;;;;4.67;1.90;;;;;;;15.86;100.00;101848.38;2071763;28;20588;-68
2023/09/30 03:15:44;;;;;;;3.57;1.90;;;;;;;15.87;100.00;101843.56;2071783;28;20232;-68
2023/09/30 03:16:46;;;;;;;3.13;1.47;;;;;;;15.58;100.00;101798.03;2072013;28;20193;-68
2023/09/30 03:17:47;;;;;;;8.57;2.07;;;;;;;15.88;100.00;101845.16;2072305;28;20725;-68
2023/09/30 03:18:49;;;;;;;2.67;1.50;;;;;;;15.89;100.00;101835.53;2072318;28;20805;-68
2023/09/30 03:19:50;;;;;;;2.20;1.50;;;;;;;15.89;100.00;101833.50;2072336;28;20276;-68
2023/09/30 03:20:50;;;;;;;3.70;1.70;;;;;;;15.92;100.00;101838.22;2072399;28;20451;-68
2023/09/30 03:21:51;;;;;;;1.73;1.27;;;;;;;15.91;100.00;101839.47;2066586;28;20516;-68
2023/09/30 03:22:52;;;;;;;2.60;1.77;;;;;;;15.80;100.00;101824.97;2068363;28;20201;-68
2023/09/30 03:23:52;;;;;;;2.30;1.60;;;;;;;15.94;100.00;101837.78;2072300;28;20193;-68
2023/09/30 03:24:57;;;;;;;2.17;1.57;;;;;;;15.94;100.00;101832.19;2071955;28;20260;-68
2023/09/30 03:25:58;;;;;;;4.10;1.87;;;;;;;15.96;100.00;101838.94;2071892;28;20200;-68
2023/09/30 03:26:59;;;;;;;6.03;1.80;;;;;;;15.79;100.00;101817.03;2071843;28;20800;-68
2023/09/30 03:27:59;;;;;;;7.20;2.23;;;;;;;16.00;100.00;101852.81;2072395;28;20511;-68
2023/09/30 03:29:00;;;;;;;4.00;1.80;;;;;;;16.01;100.00;101837.59;2072217;28;20189;-68
2023/09/30 03:30:01;;;;;;;6.83;1.97;;;;;;;16.01;100.00;101849.56;2072282;28;20647;-68
2023/09/30 03:31:01;;;;;;;2.93;2.00;;;;;;;16.02;100.00;101847.53;2072683;28;20193;-68
2023/09/30 03:32:02;;;;;;;4.97;2.20;;;;;;;16.01;100.00;101848.78;2073909;28;20445;-68
2023/09/30 03:33:04;;;;;;;6.17;1.90;;;;;;;16.01;100.00;101849.56;2073708;28;20272;-68
2023/09/30 03:34:05;;;;;;;8.40;1.93;;;;;;;15.97;100.00;101848.09;2073622;28;20671;-68
2023/09/30 03:35:07;;;;;;;3.47;2.17;;;;;;;15.96;100.00;101852.91;2073010;28;20413;-68
2023/09/30 03:36:09;;;;;;;2.93;1.67;;;;;;;15.98;100.00;101855.28;2073945;28;20434;-68
2023/09/30 03:37:09;;;;;;;5.67;2.07;;;;;;;15.97;100.00;101846.09;2065752;28;20430;-68
2023/09/30 03:38:12;;;;;;;6.33;1.93;;;;;;;15.94;100.00;101849.75;2072738;28;20439;-68
2023/09/30 03:39:15;;;;;;;4.43;2.53;;;;;;;15.93;100.00;101850.22;2073893;28;20194;-68
2023/09/30 03:40:18;;;;;;;3.60;1.93;;;;;;;15.93;100.00;101850.97;2073847;28;20975;-68
2023/09/30 03:41:19;;;;;;;3.53;1.90;;;;;;;15.92;100.00;101849.41;2073883;28;20458;-68
2023/09/30 03:42:19;;;;;;;2.63;1.80;;;;;;;15.91;100.00;101847.03;2073906;28;20443;-68
2023/09/30 03:43:21;;;;;;;2.70;1.70;;;;;;;15.47;100.00;101787.09;2073757;28;20271;-68
2023/09/30 03:44:23;;;;;;;3.93;1.80;;;;;;;15.91;100.00;101858.22;2072865;28;20176;-68
2023/09/30 03:45:23;;;;;;;3.23;1.73;;;;;;;15.88;100.00;101848.72;2065575;28;21021;-68
2023/09/30 03:46:25;;;;;;;2.27;1.43;;;;;;;15.87;100.00;101852.75;2074078;28;20455;-68
2023/09/30 03:47:26;;;;;;;6.90;1.60;;;;;;;15.87;100.00;101851.94;2073794;28;20204;-68
2023/09/30 03:48:26;;;;;;;3.67;1.83;;;;;;;15.65;100.00;101820.19;2073601;28;20478;-68
2023/09/30 03:49:28;;;;;;;3.33;1.70;;;;;;;15.79;100.00;101840.16;2073156;28;20672;-68
2023/09/30 03:50:30;;;;;;;2.63;1.70;;;;;;;15.84;100.00;101850.81;2073773;28;20193;-68
2023/09/30 03:51:30;;;;;;;4.17;2.03;;;;;;;15.85;100.00;101848.81;2073246;28;20452;-68
2023/09/30 03:52:34;;;;;;;3.07;1.60;;;;;;;15.82;100.00;101852.47;2073756;28;20782;-68
2023/09/30 03:53:35;;;;;;;4.67;1.67;;;;;;;15.77;100.00;101845.41;2073676;28;20685;-68
2023/09/30 03:54:37;;;;;;;3.30;2.00;;;;;;;15.50;100.00;101799.41;2073194;28;20452;-68
2023/09/30 03:55:37;;;;;;;3.17;1.70;;;;;;;15.76;100.00;101845.84;2073397;28;20477;-68
2023/09/30 03:56:41;;;;;;;2.77;1.63;;;;;;;15.78;100.00;101855.34;2065972;28;20484;-68
2023/09/30 03:57:41;;;;;;;2.30;1.60;;;;;;;15.77;100.00;101847.44;2072868;28;20275;-68
2023/09/30 03:58:44;;;;;;;5.93;1.87;;;;;;;15.78;100.00;101840.63;2073470;28;20452;-68
2023/09/30 03:59:46;;;;;;;2.83;1.60;;;;;;;15.77;100.00;101847.44;2073757;28;20238;-68
2023/09/30 04:00:48;;;;;;;3.60;1.77;;;;;;;15.75;100.00;101850.66;2073665;28;20451;-68
2023/09/30 04:01:48;;;;;;;3.80;1.80;;;;;;;15.72;100.00;101854.31;2073775;28;20443;-68
2023/09/30 04:02:49;;;;;;;2.73;1.40;;;;;;;15.72;100.00;101848.72;2073658;28;20455;-68
2023/09/30 04:03:49;;;;;;;2.90;1.70;;;;;;;15.73;100.00;101852.31;2072993;28;20250;-68
2023/09/30 04:04:53;;;;;;;2.03;1.60;;;;;;;15.71;100.00;101855.56;2073467;28;20663;-68
2023/09/30 04:05:53;;;;;;;2.73;1.70;;;;;;;15.69;100.00;101852.41;2065318;28;20182;-68
2023/09/30 04:06:54;;;;;;;5.27;1.80;;;;;;;15.68;100.00;101852.84;2072242;28;20552;-68
2023/09/30 04:07:58;;;;;;;2.30;1.70;;;;;;;15.62;100.00;101851.81;2073831;28;20197;-68
2023/09/30 04:08:59;;;;;;;3.13;1.73;;;;;;;15.62;100.00;101852.59;2073399;28;20189;-68
2023/09/30 04:10:01;;;;;;;2.40;1.60;;;;;;;15.63;100.00;101854.16;2073516;28;20543;-68
2023/09/30 04:11:04;;;;;;;2.87;1.57;;;;;;;15.64;100.00;101849.34;2073416;28;20190;-68
2023/09/30 04:12:05;;;;;;;2.40;1.60;;;;;;;15.65;100.00;101848.13;2073535;28;20427;-68
2023/09/30 04:13:06;;;;;;;2.03;1.60;;;;;;;15.63;100.00;101850.59;2073352;28;20423;-68
2023/09/30 04:14:07;;;;;;;3.40;1.70;;;;;;;15.09;100.00;101766.50;2073361;28;20422;-68
2023/09/30 04:15:11;;;;;;;2.93;1.43;;;;;;;15.65;100.00;101857.31;2072948;28;20178;-68
2023/09/30 04:16:12;;;;;;;3.83;1.73;;;;;;;15.67;100.00;101852.06;2073801;28;20432;-68
2023/09/30 04:17:12;;;;;;;4.13;1.43;;;;;;;15.18;100.00;101768.69;2066641;28;20448;-68
2023/09/30 04:18:13;;;;;;;3.13;1.73;;;;;;;15.65;100.00;101857.31;2070604;28;20228;-68
2023/09/30 04:19:13;;;;;;;2.73;1.73;;;;;;;15.67;100.00;101860.44;2073463;28;20225;-68
2023/09/30 04:20:26;;;;;;;3.50;1.80;;;;;;;15.29;100.00;101797.13;2073394;28;20193;-68
2023/09/30 04:21:30;;;;;;;4.03;1.97;;;;;;;15.67;100.00;101859.69;2073593;28;20738;-68
2023/09/30 04:22:32;;;;;;;9.07;2.23;;;;;;;15.66;100.00;101860.88;2073718;28;20438;-68
2023/09/30 04:23:36;;;;;;;5.83;2.00;;;;;;;15.69;100.00;101862.81;2073594;28;20428;-68
2023/09/30 04:24:36;;;;;;;6.60;1.90;;;;;;;15.67;100.00;101865.25;2072946;28;20409;-68
2023/09/30 04:25:37;;;;;;;5.00;2.03;;;;;;;15.10;100.00;101770.84;2073043;28;20435;-68
2023/09/30 04:26:38;;;;;;;2.60;1.60;;;;;;;15.45;100.00;101825.88;2073711;28;20281;-68
2023/09/30 04:27:38;;;;;;;6.73;1.57;;;;;;;15.70;100.00;101855.97;2073095;28;20617;-68
2023/09/30 04:28:39;;;;;;;2.83;1.93;;;;;;;15.69;100.00;101863.59;2073485;28;20194;-68
2023/09/30 04:29:41;;;;;;;3.47;1.73;;;;;;;15.69;100.00;101854.41;2073525;28;20291;-68
2023/09/30 04:30:41;;;;;;;4.60;1.87;;;;;;;15.47;100.00;101822.66;2073400;28;20201;-68
2023/09/30 04:31:41;;;;;;;4.40;1.83;;;;;;;15.71;100.00;101863.13;2072594;28;20440;-68
2023/09/30 04:32:43;;;;;;;2.23;1.47;;;;;;;15.71;100.00;101865.94;2073370;28;20179;-68
2023/09/30 04:33:43;;;;;;;3.73;1.80;;;;;;;15.71;100.00;101855.56;2073108;28;20680;-67
2023/09/30 04:34:44;;;;;;;4.23;2.10;;;;;;;15.70;100.00;101858.78;2072694;28;20522;-68
2023/09/30 04:35:45;;;;;;;2.90;1.70;;;;;;;15.67;100.00;101854.84;2063871;28;20221;-68
2023/09/30 04:36:45;;;;;;;4.83;2.00;;;;;;;15.73;100.00;101869.09;2071311;28;20195;-68
2023/09/30 04:37:46;;;;;;;2.67;1.90;;;;;;;15.74;100.00;101868.66;2073040;28;20463;-68
2023/09/30 04:38:47;;;;;;;7.20;2.57;;;;;;;15.75;100.00;101873.03;2072680;28;20190;-68
2023/09/30 04:39:47;;;;;;;4.47;2.30;;;;;;;15.75;100.00;101869.44;2072894;28;20201;-68
2023/09/30 04:40:51;;;;;;;3.87;1.80;;;;;;;15.75;100.00;101873.03;2072819;28;20190;-68
2023/09/30 04:41:51;;;;;;;3.53;1.93;;;;;;;15.76;100.00;101866.22;2072526;28;20561;-68